sensor_id;sensor_type;location;lat;lon;timestamp;temperature;humidity
13960;DHT22;7052;51.050;3.716;2023-02-04T00:00:31;10.10;99.90
13960;DHT22;7052;51.050;3.716;2023-02-04T00:03:01;10.10;99.90
13960;DHT22;7052;51.050;3.716;2023-02-04T00:05:32;10.10;99.90
13960;DHT22;7052;51.050;3.716;2023-02-04T00:08:00;10.10;99.90
13960;DHT22;7052;51.050;3.716;2023-02-04T00:10:29;10.20;99.90
13960;DHT22;7052;51.050;3.716;2023-02-04T00:12:58;10.20;99.90
13960;DHT22;7052;51.050;3.716;2023-02-04T00:15:25;10.10;99.90
13960;DHT22;7052;51.050;3.716;2023-02-04T00:17:52;10.20;99.90
13960;DHT22;7052;51.050;3.716;2023-02-04T00:20:19;10.20;99.90
13960;DHT22;7052;51.050;3.716;2023-02-04T00:22:48;10.20;99.90
13960;DHT22;7052;51.050;3.716;2023-02-04T00:25:17;10.20;99.90
13960;DHT22;7052;51.050;3.716;2023-02-04T00:27:46;10.20;99.90
13960;DHT22;7052;51.050;3.716;2023-02-04T00:30:13;10.10;99.90
13960;DHT22;7052;51.050;3.716;2023-02-04T00:32:46;10.20;99.90
13960;DHT22;7052;51.050;3.716;2023-02-04T00:35:13;10.30;99.90
13960;DHT22;7052;51.050;3.716;2023-02-04T00:37:41;10.20;99.90
13960;DHT22;7052;51.050;3.716;2023-02-04T00:40:09;10.30;99.90
13960;DHT22;7052;51.050;3.716;2023-02-04T00:42:38;10.30;99.90
13960;DHT22;7052;51.050;3.716;2023-02-04T00:45:05;10.30;99.90
13960;DHT22;7052;51.050;3.716;2023-02-04T00:47:33;10.30;99.90
13960;DHT22;7052;51.050;3.716;2023-02-04T00:50:02;10.30;99.90
13960;DHT22;7052;51.050;3.716;2023-02-04T00:52:30;10.30;99.90
13960;DHT22;7052;51.050;3.716;2023-02-04T00:54:58;10.30;99.90
13960;DHT22;7052;51.050;3.716;2023-02-04T00:57:26;10.30;99.90
13960;DHT22;7052;51.050;3.716;2023-02-04T01:00:02;10.20;99.90
13960;DHT22;7052;51.050;3.716;2023-02-04T01:02:32;10.20;99.90
13960;DHT22;7052;51.050;3.716;2023-02-04T01:04:59;10.10;99.90
13960;DHT22;7052;51.050;3.716;2023-02-04T01:07:27;10.20;99.90
13960;DHT22;7052;51.050;3.716;2023-02-04T01:09:55;10.10;99.90
13960;DHT22;7052;51.050;3.716;2023-02-04T01:12:22;10.10;99.90
13960;DHT22;7052;51.050;3.716;2023-02-04T01:14:51;10.10;99.90
13960;DHT22;7052;51.050;3.716;2023-02-04T01:17:22;10.00;99.90
13960;DHT22;7052;51.050;3.716;2023-02-04T01:19:49;10.00;99.90
13960;DHT22;7052;51.050;3.716;2023-02-04T01:22:17;10.00;99.90
13960;DHT22;7052;51.050;3.716;2023-02-04T01:24:44;10.00;99.90
13960;DHT22;7052;51.050;3.716;2023-02-04T01:27:10;9.90;99.90
13960;DHT22;7052;51.050;3.716;2023-02-04T01:29:37;9.90;99.90
13960;DHT22;7052;51.050;3.716;2023-02-04T01:32:07;9.90;99.90
13960;DHT22;7052;51.050;3.716;2023-02-04T01:34:36;9.90;99.90
13960;DHT22;7052;51.050;3.716;2023-02-04T01:37:06;9.90;99.90
13960;DHT22;7052;51.050;3.716;2023-02-04T01:39:33;9.90;99.90
13960;DHT22;7052;51.050;3.716;2023-02-04T01:42:01;9.80;99.90
13960;DHT22;7052;51.050;3.716;2023-02-04T01:44:30;9.80;99.90
13960;DHT22;7052;51.050;3.716;2023-02-04T01:46:59;9.80;99.90
13960;DHT22;7052;51.050;3.716;2023-02-04T01:49:26;9.80;99.90
13960;DHT22;7052;51.050;3.716;2023-02-04T01:51:56;9.80;99.90
13960;DHT22;7052;51.050;3.716;2023-02-04T01:54:25;9.80;99.90
13960;DHT22;7052;51.050;3.716;2023-02-04T01:56:54;9.80;99.90
13960;DHT22;7052;51.050;3.716;2023-02-04T01:59:21;9.80;99.90
13960;DHT22;7052;51.050;3.716;2023-02-04T02:01:50;9.70;99.90
13960;DHT22;7052;51.050;3.716;2023-02-04T02:04:27;9.80;99.90
13960;DHT22;7052;51.050;3.716;2023-02-04T02:06:58;9.70;99.90
13960;DHT22;7052;51.050;3.716;2023-02-04T02:09:29;9.70;99.90
13960;DHT22;7052;51.050;3.716;2023-02-04T02:11:57;9.70;99.90
13960;DHT22;7052;51.050;3.716;2023-02-04T02:14:25;9.80;99.90
13960;DHT22;7052;51.050;3.716;2023-02-04T02:16:53;9.70;99.90
13960;DHT22;7052;51.050;3.716;2023-02-04T02:19:25;9.70;99.90
13960;DHT22;7052;51.050;3.716;2023-02-04T02:22:00;9.70;99.90
13960;DHT22;7052;51.050;3.716;2023-02-04T02:24:34;9.60;99.90
13960;DHT22;7052;51.050;3.716;2023-02-04T02:27:03;9.60;99.90
13960;DHT22;7052;51.050;3.716;2023-02-04T02:29:32;9.60;99.90
13960;DHT22;7052;51.050;3.716;2023-02-04T02:31:59;9.60;99.90
13960;DHT22;7052;51.050;3.716;2023-02-04T02:34:27;9.60;99.90
13960;DHT22;7052;51.050;3.716;2023-02-04T02:36:55;9.60;99.90
13960;DHT22;7052;51.050;3.716;2023-02-04T02:39:25;9.60;99.90
13960;DHT22;7052;51.050;3.716;2023-02-04T02:42:03;9.60;99.90
13960;DHT22;7052;51.050;3.716;2023-02-04T02:44:32;9.60;99.90
13960;DHT22;7052;51.050;3.716;2023-02-04T02:47:00;9.60;99.90
13960;DHT22;7052;51.050;3.716;2023-02-04T02:49:30;9.60;99.90
13960;DHT22;7052;51.050;3.716;2023-02-04T02:51:58;9.60;99.90
13960;DHT22;7052;51.050;3.716;2023-02-04T02:54:27;9.50;99.90
13960;DHT22;7052;51.050;3.716;2023-02-04T02:56:57;9.60;99.90
13960;DHT22;7052;51.050;3.716;2023-02-04T02:59:25;9.60;99.90
13960;DHT22;7052;51.050;3.716;2023-02-04T03:01:55;9.70;99.90
13960;DHT22;7052;51.050;3.716;2023-02-04T03:04:25;9.50;99.90
13960;DHT22;7052;51.050;3.716;2023-02-04T03:06:53;9.50;99.90
13960;DHT22;7052;51.050;3.716;2023-02-04T03:09:29;9.50;99.90
13960;DHT22;7052;51.050;3.716;2023-02-04T03:11:58;9.50;99.90
13960;DHT22;7052;51.050;3.716;2023-02-04T03:14:29;9.50;99.90
13960;DHT22;7052;51.050;3.716;2023-02-04T03:16:57;9.50;99.90
13960;DHT22;7052;51.050;3.716;2023-02-04T03:19:26;9.50;99.90
13960;DHT22;7052;51.050;3.716;2023-02-04T03:21:55;9.50;99.90
13960;DHT22;7052;51.050;3.716;2023-02-04T03:24:24;9.40;99.90
13960;DHT22;7052;51.050;3.716;2023-02-04T03:26:53;9.50;99.90
13960;DHT22;7052;51.050;3.716;2023-02-04T03:29:21;9.40;99.90
13960;DHT22;7052;51.050;3.716;2023-02-04T03:31:49;9.50;99.90
13960;DHT22;7052;51.050;3.716;2023-02-04T03:34:16;9.40;99.90
13960;DHT22;7052;51.050;3.716;2023-02-04T03:36:49;9.40;99.90
13960;DHT22;7052;51.050;3.716;2023-02-04T03:39:16;9.40;99.90
13960;DHT22;7052;51.050;3.716;2023-02-04T03:41:43;9.50;99.90
13960;DHT22;7052;51.050;3.716;2023-02-04T03:44:10;9.40;99.90
13960;DHT22;7052;51.050;3.716;2023-02-04T03:46:38;9.40;99.90
13960;DHT22;7052;51.050;3.716;2023-02-04T03:49:06;9.40;99.90
13960;DHT22;7052;51.050;3.716;2023-02-04T03:51:34;9.40;99.90
13960;DHT22;7052;51.050;3.716;2023-02-04T03:54:00;9.40;99.90
13960;DHT22;7052;51.050;3.716;2023-02-04T03:56:28;9.40;99.90
13960;DHT22;7052;51.050;3.716;2023-02-04T03:58:55;9.40;99.90
13960;DHT22;7052;51.050;3.716;2023-02-04T04:01:23;9.30;99.90
13960;DHT22;7052;51.050;3.716;2023-02-04T04:03:51;9.40;99.90
13960;DHT22;7052;51.050;3.716;2023-02-04T04:06:18;9.40;99.90
13960;DHT22;7052;51.050;3.716;2023-02-04T04:08:45;9.40;99.90
13960;DHT22;7052;51.050;3.716;2023-02-04T04:11:13;9.30;99.90
13960;DHT22;7052;51.050;3.716;2023-02-04T04:13:48;9.30;99.90
13960;DHT22;7052;51.050;3.716;2023-02-04T04:16:17;9.30;99.90
13960;DHT22;7052;51.050;3.716;2023-02-04T04:18:45;9.40;99.90
13960;DHT22;7052;51.050;3.716;2023-02-04T04:21:13;9.30;99.90
13960;DHT22;7052;51.050;3.716;2023-02-04T04:23:42;9.30;99.90
13960;DHT22;7052;51.050;3.716;2023-02-04T04:26:09;9.40;99.90
13960;DHT22;7052;51.050;3.716;2023-02-04T04:28:36;9.30;99.90
13960;DHT22;7052;51.050;3.716;2023-02-04T04:31:03;9.30;99.90
13960;DHT22;7052;51.050;3.716;2023-02-04T04:33:31;9.30;99.90
13960;DHT22;7052;51.050;3.716;2023-02-04T04:35:58;9.30;99.90
13960;DHT22;7052;51.050;3.716;2023-02-04T04:38:26;9.30;99.90
13960;DHT22;7052;51.050;3.716;2023-02-04T04:40:53;9.30;99.90
13960;DHT22;7052;51.050;3.716;2023-02-04T04:43:21;9.30;99.90
13960;DHT22;7052;51.050;3.716;2023-02-04T04:45:49;9.30;99.90
13960;DHT22;7052;51.050;3.716;2023-02-04T04:48:16;9.30;99.90
13960;DHT22;7052;51.050;3.716;2023-02-04T04:50:46;9.30;99.90
13960;DHT22;7052;51.050;3.716;2023-02-04T04:53:13;9.30;99.90
13960;DHT22;7052;51.050;3.716;2023-02-04T04:55:41;9.30;99.90
13960;DHT22;7052;51.050;3.716;2023-02-04T04:58:10;9.30;99.90
13960;DHT22;7052;51.050;3.716;2023-02-04T05:00:49;9.30;99.90
13960;DHT22;7052;51.050;3.716;2023-02-04T05:03:19;9.30;99.90
13960;DHT22;7052;51.050;3.716;2023-02-04T05:05:47;9.30;99.90
13960;DHT22;7052;51.050;3.716;2023-02-04T05:08:17;9.30;99.90
13960;DHT22;7052;51.050;3.716;2023-02-04T05:10:48;9.30;99.90
13960;DHT22;7052;51.050;3.716;2023-02-04T05:13:18;9.30;99.90
13960;DHT22;7052;51.050;3.716;2023-02-04T05:15:45;9.30;99.90
13960;DHT22;7052;51.050;3.716;2023-02-04T05:18:12;9.30;99.90
13960;DHT22;7052;51.050;3.716;2023-02-04T05:20:40;9.30;99.90
13960;DHT22;7052;51.050;3.716;2023-02-04T05:23:07;9.30;99.90
13960;DHT22;7052;51.050;3.716;2023-02-04T05:25:34;9.30;99.90
13960;DHT22;7052;51.050;3.716;2023-02-04T05:28:02;9.30;99.90
13960;DHT22;7052;51.050;3.716;2023-02-04T05:30:30;9.30;99.90
13960;DHT22;7052;51.050;3.716;2023-02-04T05:32:58;9.30;99.90
13960;DHT22;7052;51.050;3.716;2023-02-04T05:35:26;9.30;99.90
13960;DHT22;7052;51.050;3.716;2023-02-04T05:37:52;9.20;99.90
13960;DHT22;7052;51.050;3.716;2023-02-04T05:40:19;9.30;99.90
13960;DHT22;7052;51.050;3.716;2023-02-04T05:42:46;9.20;99.90
13960;DHT22;7052;51.050;3.716;2023-02-04T05:45:17;9.20;99.90
13960;DHT22;7052;51.050;3.716;2023-02-04T05:47:47;9.20;99.90
13960;DHT22;7052;51.050;3.716;2023-02-04T05:50:14;9.30;99.90
13960;DHT22;7052;51.050;3.716;2023-02-04T05:52:46;9.30;99.90
13960;DHT22;7052;51.050;3.716;2023-02-04T05:55:13;9.30;99.90
13960;DHT22;7052;51.050;3.716;2023-02-04T05:57:40;9.20;99.90
13960;DHT22;7052;51.050;3.716;2023-02-04T06:00:08;9.20;99.90
13960;DHT22;7052;51.050;3.716;2023-02-04T06:02:38;9.20;99.90
13960;DHT22;7052;51.050;3.716;2023-02-04T06:05:05;9.20;99.90
13960;DHT22;7052;51.050;3.716;2023-02-04T06:07:32;9.20;99.90
13960;DHT22;7052;51.050;3.716;2023-02-04T06:09:59;9.20;99.90
13960;DHT22;7052;51.050;3.716;2023-02-04T06:12:26;9.20;99.90
13960;DHT22;7052;51.050;3.716;2023-02-04T06:14:53;9.20;99.90
13960;DHT22;7052;51.050;3.716;2023-02-04T06:17:20;9.20;99.90
13960;DHT22;7052;51.050;3.716;2023-02-04T06:19:51;9.20;99.90
13960;DHT22;7052;51.050;3.716;2023-02-04T06:22:18;9.20;99.90
13960;DHT22;7052;51.050;3.716;2023-02-04T06:24:48;9.20;99.90
13960;DHT22;7052;51.050;3.716;2023-02-04T06:27:16;9.20;99.90
13960;DHT22;7052;51.050;3.716;2023-02-04T06:29:47;9.20;99.90
13960;DHT22;7052;51.050;3.716;2023-02-04T06:32:14;9.20;99.90
13960;DHT22;7052;51.050;3.716;2023-02-04T06:34:41;9.20;99.90
13960;DHT22;7052;51.050;3.716;2023-02-04T06:37:11;9.20;99.90
13960;DHT22;7052;51.050;3.716;2023-02-04T06:39:38;9.20;99.90
13960;DHT22;7052;51.050;3.716;2023-02-04T06:42:05;9.20;99.90
13960;DHT22;7052;51.050;3.716;2023-02-04T06:44:35;9.20;99.90
13960;DHT22;7052;51.050;3.716;2023-02-04T06:47:01;9.20;99.90
13960;DHT22;7052;51.050;3.716;2023-02-04T06:49:28;9.20;99.90
13960;DHT22;7052;51.050;3.716;2023-02-04T06:51:56;9.20;99.90
13960;DHT22;7052;51.050;3.716;2023-02-04T06:54:25;9.20;99.90
13960;DHT22;7052;51.050;3.716;2023-02-04T06:56:52;9.20;99.90
13960;DHT22;7052;51.050;3.716;2023-02-04T06:59:19;9.20;99.90
13960;DHT22;7052;51.050;3.716;2023-02-04T07:01:45;9.20;99.90
13960;DHT22;7052;51.050;3.716;2023-02-04T07:04:14;9.20;99.90
13960;DHT22;7052;51.050;3.716;2023-02-04T07:06:41;9.20;99.90
13960;DHT22;7052;51.050;3.716;2023-02-04T07:09:09;9.20;99.90
13960;DHT22;7052;51.050;3.716;2023-02-04T07:11:40;9.20;99.90
13960;DHT22;7052;51.050;3.716;2023-02-04T07:14:07;9.20;99.90
13960;DHT22;7052;51.050;3.716;2023-02-04T07:16:36;9.10;99.90
13960;DHT22;7052;51.050;3.716;2023-02-04T07:19:02;9.20;99.90
13960;DHT22;7052;51.050;3.716;2023-02-04T07:21:30;9.10;99.90
13960;DHT22;7052;51.050;3.716;2023-02-04T07:23:58;9.10;99.90
13960;DHT22;7052;51.050;3.716;2023-02-04T07:26:25;9.10;99.90
13960;DHT22;7052;51.050;3.716;2023-02-04T07:28:58;9.10;99.90
13960;DHT22;7052;51.050;3.716;2023-02-04T07:31:27;9.10;99.90
13960;DHT22;7052;51.050;3.716;2023-02-04T07:33:54;9.10;99.90
13960;DHT22;7052;51.050;3.716;2023-02-04T07:36:22;9.10;99.90
13960;DHT22;7052;51.050;3.716;2023-02-04T07:38:52;9.10;99.90
13960;DHT22;7052;51.050;3.716;2023-02-04T07:41:24;9.10;99.90
13960;DHT22;7052;51.050;3.716;2023-02-04T07:43:51;9.10;99.90
13960;DHT22;7052;51.050;3.716;2023-02-04T07:46:20;9.10;99.90
13960;DHT22;7052;51.050;3.716;2023-02-04T07:48:47;9.10;99.90
13960;DHT22;7052;51.050;3.716;2023-02-04T07:51:14;9.10;99.90
13960;DHT22;7052;51.050;3.716;2023-02-04T07:53:40;9.10;99.90
13960;DHT22;7052;51.050;3.716;2023-02-04T07:56:10;9.10;99.90
13960;DHT22;7052;51.050;3.716;2023-02-04T07:58:45;9.20;99.90
13960;DHT22;7052;51.050;3.716;2023-02-04T08:01:31;9.20;99.90
13960;DHT22;7052;51.050;3.716;2023-02-04T08:03:58;9.20;99.90
13960;DHT22;7052;51.050;3.716;2023-02-04T08:06:26;9.20;99.90
13960;DHT22;7052;51.050;3.716;2023-02-04T08:08:58;9.30;99.90
13960;DHT22;7052;51.050;3.716;2023-02-04T08:11:25;9.30;99.90
13960;DHT22;7052;51.050;3.716;2023-02-04T08:13:56;9.20;99.90
13960;DHT22;7052;51.050;3.716;2023-02-04T08:16:28;9.30;99.90
13960;DHT22;7052;51.050;3.716;2023-02-04T08:19:03;9.30;99.90
13960;DHT22;7052;51.050;3.716;2023-02-04T08:21:30;9.30;99.90
13960;DHT22;7052;51.050;3.716;2023-02-04T08:23:56;9.30;99.90
13960;DHT22;7052;51.050;3.716;2023-02-04T08:26:23;9.30;99.90
13960;DHT22;7052;51.050;3.716;2023-02-04T08:28:54;9.30;99.90
13960;DHT22;7052;51.050;3.716;2023-02-04T08:31:27;9.30;99.90
13960;DHT22;7052;51.050;3.716;2023-02-04T08:33:53;9.40;99.90
13960;DHT22;7052;51.050;3.716;2023-02-04T08:36:20;9.30;99.90
13960;DHT22;7052;51.050;3.716;2023-02-04T08:38:48;9.40;99.90
13960;DHT22;7052;51.050;3.716;2023-02-04T08:41:16;9.40;99.90
13960;DHT22;7052;51.050;3.716;2023-02-04T08:43:43;9.40;99.90
13960;DHT22;7052;51.050;3.716;2023-02-04T08:46:10;9.40;99.90
13960;DHT22;7052;51.050;3.716;2023-02-04T08:48:39;9.40;99.90
13960;DHT22;7052;51.050;3.716;2023-02-04T08:51:06;9.50;99.90
13960;DHT22;7052;51.050;3.716;2023-02-04T08:53:33;9.50;99.90
13960;DHT22;7052;51.050;3.716;2023-02-04T08:56:00;9.50;99.90
13960;DHT22;7052;51.050;3.716;2023-02-04T08:58:32;9.50;99.90
13960;DHT22;7052;51.050;3.716;2023-02-04T09:00:59;9.60;99.90
13960;DHT22;7052;51.050;3.716;2023-02-04T09:03:27;9.60;99.90
13960;DHT22;7052;51.050;3.716;2023-02-04T09:05:57;9.60;99.90
13960;DHT22;7052;51.050;3.716;2023-02-04T09:08:24;9.60;99.90
13960;DHT22;7052;51.050;3.716;2023-02-04T09:10:51;9.70;99.90
13960;DHT22;7052;51.050;3.716;2023-02-04T09:13:17;9.70;99.90
13960;DHT22;7052;51.050;3.716;2023-02-04T09:15:44;9.70;99.90
13960;DHT22;7052;51.050;3.716;2023-02-04T09:18:11;9.70;99.90
13960;DHT22;7052;51.050;3.716;2023-02-04T09:20:44;9.70;99.90
13960;DHT22;7052;51.050;3.716;2023-02-04T09:23:13;9.80;99.90
13960;DHT22;7052;51.050;3.716;2023-02-04T09:25:41;9.80;99.90
13960;DHT22;7052;51.050;3.716;2023-02-04T09:28:09;9.90;99.90
13960;DHT22;7052;51.050;3.716;2023-02-04T09:30:37;10.00;99.90
13960;DHT22;7052;51.050;3.716;2023-02-04T09:33:05;10.00;99.90
13960;DHT22;7052;51.050;3.716;2023-02-04T09:35:33;10.10;99.90
13960;DHT22;7052;51.050;3.716;2023-02-04T09:38:04;10.10;99.90
13960;DHT22;7052;51.050;3.716;2023-02-04T09:40:34;10.10;99.90
13960;DHT22;7052;51.050;3.716;2023-02-04T09:43:03;10.20;99.90
13960;DHT22;7052;51.050;3.716;2023-02-04T09:45:33;10.20;99.90
13960;DHT22;7052;51.050;3.716;2023-02-04T09:48:03;10.20;99.90
13960;DHT22;7052;51.050;3.716;2023-02-04T09:50:32;10.30;99.90
13960;DHT22;7052;51.050;3.716;2023-02-04T09:53:02;10.30;99.90
13960;DHT22;7052;51.050;3.716;2023-02-04T09:55:33;10.40;99.90
13960;DHT22;7052;51.050;3.716;2023-02-04T09:58:00;10.50;99.90
13960;DHT22;7052;51.050;3.716;2023-02-04T10:00:29;10.60;99.90
13960;DHT22;7052;51.050;3.716;2023-02-04T10:02:58;10.60;99.90
13960;DHT22;7052;51.050;3.716;2023-02-04T10:05:28;10.60;99.90
13960;DHT22;7052;51.050;3.716;2023-02-04T10:07:57;10.60;99.90
13960;DHT22;7052;51.050;3.716;2023-02-04T10:10:26;10.60;99.90
13960;DHT22;7052;51.050;3.716;2023-02-04T10:12:57;10.70;99.90
13960;DHT22;7052;51.050;3.716;2023-02-04T10:15:25;10.70;99.90
13960;DHT22;7052;51.050;3.716;2023-02-04T10:17:54;10.80;99.90
13960;DHT22;7052;51.050;3.716;2023-02-04T10:20:23;10.80;99.90
13960;DHT22;7052;51.050;3.716;2023-02-04T10:22:54;10.90;99.90
13960;DHT22;7052;51.050;3.716;2023-02-04T10:25:26;10.90;99.90
13960;DHT22;7052;51.050;3.716;2023-02-04T10:27:58;11.00;99.90
13960;DHT22;7052;51.050;3.716;2023-02-04T10:30:27;11.00;99.90
13960;DHT22;7052;51.050;3.716;2023-02-04T10:32:54;11.00;99.90
13960;DHT22;7052;51.050;3.716;2023-02-04T10:35:21;11.00;99.90
13960;DHT22;7052;51.050;3.716;2023-02-04T10:38:04;11.00;99.90
13960;DHT22;7052;51.050;3.716;2023-02-04T10:40:33;11.00;99.90
13960;DHT22;7052;51.050;3.716;2023-02-04T10:43:08;11.00;99.90
13960;DHT22;7052;51.050;3.716;2023-02-04T10:45:37;11.10;99.90
13960;DHT22;7052;51.050;3.716;2023-02-04T10:48:05;11.10;99.90
13960;DHT22;7052;51.050;3.716;2023-02-04T10:50:32;11.10;99.90
13960;DHT22;7052;51.050;3.716;2023-02-04T10:52:59;11.20;99.90
13960;DHT22;7052;51.050;3.716;2023-02-04T10:55:41;11.20;99.90
13960;DHT22;7052;51.050;3.716;2023-02-04T10:58:12;11.30;99.90
13960;DHT22;7052;51.050;3.716;2023-02-04T11:00:40;11.30;99.90
13960;DHT22;7052;51.050;3.716;2023-02-04T11:03:14;11.30;99.90
13960;DHT22;7052;51.050;3.716;2023-02-04T11:05:41;11.30;99.90
13960;DHT22;7052;51.050;3.716;2023-02-04T11:08:20;11.40;99.90
13960;DHT22;7052;51.050;3.716;2023-02-04T11:10:50;11.40;99.90
13960;DHT22;7052;51.050;3.716;2023-02-04T11:13:24;11.50;99.90
13960;DHT22;7052;51.050;3.716;2023-02-04T11:16:08;11.50;99.90
13960;DHT22;7052;51.050;3.716;2023-02-04T11:18:44;11.50;99.90
13960;DHT22;7052;51.050;3.716;2023-02-04T11:21:22;11.50;99.90
13960;DHT22;7052;51.050;3.716;2023-02-04T11:23:50;11.60;99.90
13960;DHT22;7052;51.050;3.716;2023-02-04T11:26:33;11.60;99.90
13960;DHT22;7052;51.050;3.716;2023-02-04T11:29:23;11.50;99.90
13960;DHT22;7052;51.050;3.716;2023-02-04T11:32:02;11.50;99.90
13960;DHT22;7052;51.050;3.716;2023-02-04T11:39:59;11.50;99.90
13960;DHT22;7052;51.050;3.716;2023-02-04T11:42:31;11.50;99.90
13960;DHT22;7052;51.050;3.716;2023-02-04T11:45:13;11.60;99.90
13960;DHT22;7052;51.050;3.716;2023-02-04T11:47:41;11.60;99.90
13960;DHT22;7052;51.050;3.716;2023-02-04T11:50:15;11.60;99.90
13960;DHT22;7052;51.050;3.716;2023-02-04T11:52:43;11.50;99.90
13960;DHT22;7052;51.050;3.716;2023-02-04T11:55:11;11.50;99.90
13960;DHT22;7052;51.050;3.716;2023-02-04T11:57:40;11.50;99.90
13960;DHT22;7052;51.050;3.716;2023-02-04T12:00:14;11.60;99.90
13960;DHT22;7052;51.050;3.716;2023-02-04T12:02:44;11.60;99.90
13960;DHT22;7052;51.050;3.716;2023-02-04T12:05:14;11.50;99.90
13960;DHT22;7052;51.050;3.716;2023-02-04T12:07:42;11.50;99.90
13960;DHT22;7052;51.050;3.716;2023-02-04T12:10:11;11.50;99.90
13960;DHT22;7052;51.050;3.716;2023-02-04T12:12:43;11.40;99.90
13960;DHT22;7052;51.050;3.716;2023-02-04T12:15:16;11.50;99.90
13960;DHT22;7052;51.050;3.716;2023-02-04T12:18:01;11.50;99.90
13960;DHT22;7052;51.050;3.716;2023-02-04T12:20:28;11.40;99.90
13960;DHT22;7052;51.050;3.716;2023-02-04T12:22:55;11.40;99.90
13960;DHT22;7052;51.050;3.716;2023-02-04T12:25:23;11.40;99.90
13960;DHT22;7052;51.050;3.716;2023-02-04T12:27:51;11.30;99.90
13960;DHT22;7052;51.050;3.716;2023-02-04T12:30:20;11.40;99.90
13960;DHT22;7052;51.050;3.716;2023-02-04T12:32:47;11.30;99.90
13960;DHT22;7052;51.050;3.716;2023-02-04T12:35:15;11.30;99.90
13960;DHT22;7052;51.050;3.716;2023-02-04T12:37:43;11.40;99.90
13960;DHT22;7052;51.050;3.716;2023-02-04T12:40:13;11.40;99.90
13960;DHT22;7052;51.050;3.716;2023-02-04T12:42:41;11.40;99.90
13960;DHT22;7052;51.050;3.716;2023-02-04T12:45:08;11.30;99.90
13960;DHT22;7052;51.050;3.716;2023-02-04T12:47:40;11.40;99.90
13960;DHT22;7052;51.050;3.716;2023-02-04T12:50:10;11.40;99.90
13960;DHT22;7052;51.050;3.716;2023-02-04T12:52:37;11.40;99.90
13960;DHT22;7052;51.050;3.716;2023-02-04T12:55:08;11.40;99.90
13960;DHT22;7052;51.050;3.716;2023-02-04T12:57:35;11.40;99.90
13960;DHT22;7052;51.050;3.716;2023-02-04T13:00:03;11.30;99.90
13960;DHT22;7052;51.050;3.716;2023-02-04T13:02:30;11.30;99.90
13960;DHT22;7052;51.050;3.716;2023-02-04T13:05:00;11.30;99.90
13960;DHT22;7052;51.050;3.716;2023-02-04T13:07:27;11.20;99.90
13960;DHT22;7052;51.050;3.716;2023-02-04T13:09:54;11.20;99.90
13960;DHT22;7052;51.050;3.716;2023-02-04T13:12:23;11.20;99.90
13960;DHT22;7052;51.050;3.716;2023-02-04T13:14:53;11.20;99.90
13960;DHT22;7052;51.050;3.716;2023-02-04T13:17:21;11.30;99.90
13960;DHT22;7052;51.050;3.716;2023-02-04T13:19:48;11.30;99.90
13960;DHT22;7052;51.050;3.716;2023-02-04T13:22:16;11.30;99.90
13960;DHT22;7052;51.050;3.716;2023-02-04T13:24:43;11.30;99.90
13960;DHT22;7052;51.050;3.716;2023-02-04T13:27:11;11.30;99.90
13960;DHT22;7052;51.050;3.716;2023-02-04T13:29:40;11.30;99.90
13960;DHT22;7052;51.050;3.716;2023-02-04T13:32:09;11.30;99.90
13960;DHT22;7052;51.050;3.716;2023-02-04T13:34:36;11.40;99.90
13960;DHT22;7052;51.050;3.716;2023-02-04T13:37:03;11.40;99.90
13960;DHT22;7052;51.050;3.716;2023-02-04T13:39:31;11.40;99.90
13960;DHT22;7052;51.050;3.716;2023-02-04T13:42:00;11.40;99.90
13960;DHT22;7052;51.050;3.716;2023-02-04T13:44:26;11.40;99.90
13960;DHT22;7052;51.050;3.716;2023-02-04T13:46:53;11.30;99.90
13960;DHT22;7052;51.050;3.716;2023-02-04T13:49:20;11.40;99.90
13960;DHT22;7052;51.050;3.716;2023-02-04T13:51:47;11.40;99.90
13960;DHT22;7052;51.050;3.716;2023-02-04T13:54:16;11.40;99.90
13960;DHT22;7052;51.050;3.716;2023-02-04T13:56:45;11.40;99.90
13960;DHT22;7052;51.050;3.716;2023-02-04T13:59:12;11.40;99.90
13960;DHT22;7052;51.050;3.716;2023-02-04T14:01:40;11.40;99.90
13960;DHT22;7052;51.050;3.716;2023-02-04T14:04:07;11.40;99.90
13960;DHT22;7052;51.050;3.716;2023-02-04T14:06:35;11.40;99.90
13960;DHT22;7052;51.050;3.716;2023-02-04T14:09:08;11.30;99.90
13960;DHT22;7052;51.050;3.716;2023-02-04T14:11:37;11.40;99.90
13960;DHT22;7052;51.050;3.716;2023-02-04T14:14:08;11.30;99.90
13960;DHT22;7052;51.050;3.716;2023-02-04T14:16:35;11.30;99.90
13960;DHT22;7052;51.050;3.716;2023-02-04T14:19:10;11.30;99.90
13960;DHT22;7052;51.050;3.716;2023-02-04T14:21:37;11.40;99.90
13960;DHT22;7052;51.050;3.716;2023-02-04T14:24:04;11.40;99.90
13960;DHT22;7052;51.050;3.716;2023-02-04T14:26:31;11.30;99.90
13960;DHT22;7052;51.050;3.716;2023-02-04T14:29:00;11.30;99.90
13960;DHT22;7052;51.050;3.716;2023-02-04T14:31:30;11.30;99.90
13960;DHT22;7052;51.050;3.716;2023-02-04T14:33:58;11.30;99.90
13960;DHT22;7052;51.050;3.716;2023-02-04T14:36:27;11.40;99.90
13960;DHT22;7052;51.050;3.716;2023-02-04T14:38:55;11.30;99.90
13960;DHT22;7052;51.050;3.716;2023-02-04T14:41:22;11.30;99.90
13960;DHT22;7052;51.050;3.716;2023-02-04T14:43:51;11.30;99.90
13960;DHT22;7052;51.050;3.716;2023-02-04T14:46:19;11.30;99.90
13960;DHT22;7052;51.050;3.716;2023-02-04T14:48:51;11.30;99.90
13960;DHT22;7052;51.050;3.716;2023-02-04T14:51:19;11.30;99.90
13960;DHT22;7052;51.050;3.716;2023-02-04T14:53:47;11.30;99.90
13960;DHT22;7052;51.050;3.716;2023-02-04T14:56:14;11.20;99.90
13960;DHT22;7052;51.050;3.716;2023-02-04T14:58:41;11.20;99.90
13960;DHT22;7052;51.050;3.716;2023-02-04T15:01:08;11.30;99.90
13960;DHT22;7052;51.050;3.716;2023-02-04T15:03:35;11.20;99.90
13960;DHT22;7052;51.050;3.716;2023-02-04T15:06:03;11.20;99.90
13960;DHT22;7052;51.050;3.716;2023-02-04T15:08:31;11.20;99.90
13960;DHT22;7052;51.050;3.716;2023-02-04T15:11:12;11.20;99.90
13960;DHT22;7052;51.050;3.716;2023-02-04T15:13:39;11.20;99.90
13960;DHT22;7052;51.050;3.716;2023-02-04T15:16:06;11.20;99.90
13960;DHT22;7052;51.050;3.716;2023-02-04T15:18:33;11.20;99.90
13960;DHT22;7052;51.050;3.716;2023-02-04T15:21:00;11.10;99.90
13960;DHT22;7052;51.050;3.716;2023-02-04T15:23:28;11.10;99.90
13960;DHT22;7052;51.050;3.716;2023-02-04T15:25:55;11.10;99.90
13960;DHT22;7052;51.050;3.716;2023-02-04T15:28:23;11.10;99.90
13960;DHT22;7052;51.050;3.716;2023-02-04T15:30:52;11.10;99.90
13960;DHT22;7052;51.050;3.716;2023-02-04T15:33:20;11.10;99.90
13960;DHT22;7052;51.050;3.716;2023-02-04T15:35:47;11.10;99.90
13960;DHT22;7052;51.050;3.716;2023-02-04T15:38:14;11.10;99.90
13960;DHT22;7052;51.050;3.716;2023-02-04T15:40:42;11.10;99.90
13960;DHT22;7052;51.050;3.716;2023-02-04T15:43:09;11.00;99.90
13960;DHT22;7052;51.050;3.716;2023-02-04T15:45:36;11.00;99.90
13960;DHT22;7052;51.050;3.716;2023-02-04T15:48:05;11.00;99.90
13960;DHT22;7052;51.050;3.716;2023-02-04T15:50:32;11.00;99.90
13960;DHT22;7052;51.050;3.716;2023-02-04T15:52:59;10.90;99.90
13960;DHT22;7052;51.050;3.716;2023-02-04T15:55:27;11.00;99.90
13960;DHT22;7052;51.050;3.716;2023-02-04T15:57:56;10.90;99.90
13960;DHT22;7052;51.050;3.716;2023-02-04T16:00:23;10.90;99.90
13960;DHT22;7052;51.050;3.716;2023-02-04T16:02:50;10.90;99.90
13960;DHT22;7052;51.050;3.716;2023-02-04T16:05:17;10.90;99.90
13960;DHT22;7052;51.050;3.716;2023-02-04T16:07:45;10.90;99.90
13960;DHT22;7052;51.050;3.716;2023-02-04T16:10:12;10.90;99.90